Clova, Canada
Current Conditions -  °F | °C
As of 9:00 PM on Saturday 20 Dec 2014 (Local Time) from CYVO Reporting Station
Ice Pellets Ice Pellets  
Wind Chill: -4°   Ceiling: Unl
Heat Index: -4°   Visibility: 15mi
Dew Point: -8°   Wind: 0mph
Humidity: 85%   Direction: NA
Pressure: 30.25"   Gusts: NA
Location:  48.12°N, 75.37°W
Report Text: CYVO 210200Z 00000KT 15SM IC SKC M20/M22 A3025 RMK SLP285
Loading
Personal Weather Stations






























Interactive Weather Map New forecast layout! Learn more

10-Day Weather Forecast

Advertisements
Track Severe Weather on mobile